FBSK/GBE METAR and TAF weather

Enter ICAO airport designator
Station Type Date Time Source
FBSK METAR 2022/08/12 14:00 UTC NOAA

FBSK 121400Z 24004KT 190V320 CAVOK 30/M01 Q1016 NOSIG


Station Type Date Time Source
FBSK Decoded METAR 2022/08/12 14:00 UTC NOAA

Seretse Khama International Airport, Botswana (FBSK) 24-13S 025-55E 1005M
Aug 12, 2022 - 10:00 AM EDT / 2022.08.12 1400 UTC
Wind: from the WSW (240 degrees) at 5 MPH (4 KT) (direction variable):0
Visibility: greater than 7 mile(s):0
Temperature: 86 F (30 C)
Dew Point: 30 F (-1 C)
Relative Humidity: 13%
Pressure (altimeter): 30.00 in. Hg (1016 hPa)
ob: FBSK 121400Z 24004KT 190V320 CAVOK 30/M01 Q1016 NOSIG
cycle: 14

Station Type Date Time Source
FBSK TAF 2022/08/12 12:05 UTC NOAA

TAF FBSK 121000Z 1212/1312 34004KT CAVOK

Example: see airport list